sensor_id;sensor_type;location;lat;lon;timestamp;P1;durP1;ratioP1;P2;durP2;ratioP2
69185;SDS011;56298;49.246;9.410;2023-04-01T00:01:51;4.70;;;0.80;;
69185;SDS011;56298;49.246;9.410;2023-04-01T00:04:16;3.63;;;0.60;;
69185;SDS011;56298;49.246;9.410;2023-04-01T00:06:41;4.53;;;0.90;;
69185;SDS011;56298;49.246;9.410;2023-04-01T00:09:07;4.10;;;0.80;;
69185;SDS011;56298;49.246;9.410;2023-04-01T00:11:32;4.73;;;0.87;;
69185;SDS011;56298;49.246;9.410;2023-04-01T00:13:57;3.10;;;0.90;;
69185;SDS011;56298;49.246;9.410;2023-04-01T00:16:23;4.47;;;0.80;;
69185;SDS011;56298;49.246;9.410;2023-04-01T00:18:49;5.30;;;1.07;;
69185;SDS011;56298;49.246;9.410;2023-04-01T00:21:15;4.32;;;0.98;;
69185;SDS011;56298;49.246;9.410;2023-04-01T00:23:41;3.90;;;0.85;;
69185;SDS011;56298;49.246;9.410;2023-04-01T00:26:06;5.07;;;0.77;;
69185;SDS011;56298;49.246;9.410;2023-04-01T00:28:33;3.63;;;0.70;;
69185;SDS011;56298;49.246;9.410;2023-04-01T00:31:03;5.27;;;0.90;;
69185;SDS011;56298;49.246;9.410;2023-04-01T00:33:29;4.93;;;0.80;;
69185;SDS011;56298;49.246;9.410;2023-04-01T00:35:55;5.88;;;1.00;;
69185;SDS011;56298;49.246;9.410;2023-04-01T00:38:21;4.40;;;0.80;;
69185;SDS011;56298;49.246;9.410;2023-04-01T00:40:46;3.43;;;0.83;;
69185;SDS011;56298;49.246;9.410;2023-04-01T00:43:16;5.53;;;1.10;;
69185;SDS011;56298;49.246;9.410;2023-04-01T00:45:44;4.93;;;0.80;;
69185;SDS011;56298;49.246;9.410;2023-04-01T00:48:18;4.03;;;0.73;;
69185;SDS011;56298;49.246;9.410;2023-04-01T00:50:50;6.18;;;1.00;;
69185;SDS011;56298;49.246;9.410;2023-04-01T00:53:20;6.28;;;1.00;;
69185;SDS011;56298;49.246;9.410;2023-04-01T00:55:49;5.00;;;1.00;;
69185;SDS011;56298;49.246;9.410;2023-04-01T00:58:19;5.50;;;0.90;;
69185;SDS011;56298;49.246;9.410;2023-04-01T01:00:48;5.45;;;0.80;;
69185;SDS011;56298;49.246;9.410;2023-04-01T01:03:15;6.03;;;1.00;;
69185;SDS011;56298;49.246;9.410;2023-04-01T01:05:54;5.33;;;0.90;;
69185;SDS011;56298;49.246;9.410;2023-04-01T01:11:09;5.82;;;0.90;;
69185;SDS011;56298;49.246;9.410;2023-04-01T01:13:43;5.15;;;0.80;;
69185;SDS011;56298;49.246;9.410;2023-04-01T01:16:25;5.10;;;0.77;;
69185;SDS011;56298;49.246;9.410;2023-04-01T01:24:56;6.33;;;0.97;;
69185;SDS011;56298;49.246;9.410;2023-04-01T01:28:02;6.53;;;1.13;;
69185;SDS011;56298;49.246;9.410;2023-04-01T01:36:19;5.03;;;0.90;;
69185;SDS011;56298;49.246;9.410;2023-04-01T01:38:46;4.55;;;0.88;;
69185;SDS011;56298;49.246;9.410;2023-04-01T01:41:13;5.95;;;0.90;;
69185;SDS011;56298;49.246;9.410;2023-04-01T01:43:42;5.70;;;0.90;;
69185;SDS011;56298;49.246;9.410;2023-04-01T01:46:10;5.18;;;0.82;;
69185;SDS011;56298;49.246;9.410;2023-04-01T01:48:38;4.57;;;1.00;;
69185;SDS011;56298;49.246;9.410;2023-04-01T01:51:07;4.67;;;0.80;;
69185;SDS011;56298;49.246;9.410;2023-04-01T01:53:32;6.13;;;0.90;;
69185;SDS011;56298;49.246;9.410;2023-04-01T01:55:57;7.30;;;1.00;;
69185;SDS011;56298;49.246;9.410;2023-04-01T01:58:24;7.47;;;0.93;;
69185;SDS011;56298;49.246;9.410;2023-04-01T02:00:53;5.43;;;0.93;;
69185;SDS011;56298;49.246;9.410;2023-04-01T02:03:21;5.72;;;0.82;;
69185;SDS011;56298;49.246;9.410;2023-04-01T02:05:50;4.82;;;0.90;;
69185;SDS011;56298;49.246;9.410;2023-04-01T02:08:18;6.53;;;0.98;;
69185;SDS011;56298;49.246;9.410;2023-04-01T02:10:56;5.95;;;0.90;;
69185;SDS011;56298;49.246;9.410;2023-04-01T02:13:27;6.28;;;1.08;;
69185;SDS011;56298;49.246;9.410;2023-04-01T02:15:56;5.57;;;1.00;;
69185;SDS011;56298;49.246;9.410;2023-04-01T02:18:25;4.38;;;0.80;;
69185;SDS011;56298;49.246;9.410;2023-04-01T02:20:52;6.30;;;0.90;;
69185;SDS011;56298;49.246;9.410;2023-04-01T02:23:20;6.93;;;0.80;;
69185;SDS011;56298;49.246;9.410;2023-04-01T02:25:46;5.63;;;1.00;;
69185;SDS011;56298;49.246;9.410;2023-04-01T02:28:12;5.30;;;0.85;;
69185;SDS011;56298;49.246;9.410;2023-04-01T02:30:41;4.85;;;0.93;;
69185;SDS011;56298;49.246;9.410;2023-04-01T02:33:08;5.55;;;0.85;;
69185;SDS011;56298;49.246;9.410;2023-04-01T02:35:35;7.77;;;1.13;;
69185;SDS011;56298;49.246;9.410;2023-04-01T02:38:02;4.80;;;0.70;;
69185;SDS011;56298;49.246;9.410;2023-04-01T02:40:27;7.32;;;0.80;;
69185;SDS011;56298;49.246;9.410;2023-04-01T02:42:53;4.23;;;0.90;;
69185;SDS011;56298;49.246;9.410;2023-04-01T02:45:18;3.40;;;0.70;;
69185;SDS011;56298;49.246;9.410;2023-04-01T02:47:43;3.78;;;0.75;;
69185;SDS011;56298;49.246;9.410;2023-04-01T02:50:09;4.05;;;0.90;;
69185;SDS011;56298;49.246;9.410;2023-04-01T02:52:35;4.07;;;0.75;;
69185;SDS011;56298;49.246;9.410;2023-04-01T02:55:01;5.43;;;0.90;;
69185;SDS011;56298;49.246;9.410;2023-04-01T02:57:26;3.60;;;0.63;;
69185;SDS011;56298;49.246;9.410;2023-04-01T02:59:51;3.20;;;0.60;;
69185;SDS011;56298;49.246;9.410;2023-04-01T03:02:17;4.70;;;0.70;;
69185;SDS011;56298;49.246;9.410;2023-04-01T03:04:42;3.95;;;0.60;;
69185;SDS011;56298;49.246;9.410;2023-04-01T03:07:08;3.77;;;0.60;;
69185;SDS011;56298;49.246;9.410;2023-04-01T03:09:34;4.78;;;0.93;;
69185;SDS011;56298;49.246;9.410;2023-04-01T03:12:00;5.40;;;0.60;;
69185;SDS011;56298;49.246;9.410;2023-04-01T03:14:26;4.30;;;0.70;;
69185;SDS011;56298;49.246;9.410;2023-04-01T03:16:51;2.87;;;0.40;;
69185;SDS011;56298;49.246;9.410;2023-04-01T03:19:16;3.13;;;0.60;;
69185;SDS011;56298;49.246;9.410;2023-04-01T03:21:41;5.20;;;0.70;;
69185;SDS011;56298;49.246;9.410;2023-04-01T03:24:07;4.93;;;0.80;;
69185;SDS011;56298;49.246;9.410;2023-04-01T03:26:32;3.30;;;0.90;;
69185;SDS011;56298;49.246;9.410;2023-04-01T03:28:58;3.77;;;0.80;;
69185;SDS011;56298;49.246;9.410;2023-04-01T03:31:23;6.30;;;0.90;;
69185;SDS011;56298;49.246;9.410;2023-04-01T03:33:49;5.17;;;0.90;;
69185;SDS011;56298;49.246;9.410;2023-04-01T03:36:14;5.23;;;0.80;;
69185;SDS011;56298;49.246;9.410;2023-04-01T03:38:40;4.93;;;0.60;;
69185;SDS011;56298;49.246;9.410;2023-04-01T03:41:06;4.53;;;0.60;;
69185;SDS011;56298;49.246;9.410;2023-04-01T03:43:32;5.70;;;0.70;;
69185;SDS011;56298;49.246;9.410;2023-04-01T03:45:58;3.65;;;0.63;;
69185;SDS011;56298;49.246;9.410;2023-04-01T03:48:23;4.30;;;0.60;;
69185;SDS011;56298;49.246;9.410;2023-04-01T03:50:50;5.05;;;0.90;;
69185;SDS011;56298;49.246;9.410;2023-04-01T03:53:15;3.67;;;0.77;;
69185;SDS011;56298;49.246;9.410;2023-04-01T03:55:41;3.70;;;0.50;;
69185;SDS011;56298;49.246;9.410;2023-04-01T03:58:06;3.53;;;0.60;;
69185;SDS011;56298;49.246;9.410;2023-04-01T04:00:32;4.13;;;0.70;;
69185;SDS011;56298;49.246;9.410;2023-04-01T04:02:58;3.90;;;0.50;;
69185;SDS011;56298;49.246;9.410;2023-04-01T04:05:24;3.63;;;0.50;;
69185;SDS011;56298;49.246;9.410;2023-04-01T04:07:51;5.13;;;0.90;;
69185;SDS011;56298;49.246;9.410;2023-04-01T04:10:16;3.93;;;0.50;;
69185;SDS011;56298;49.246;9.410;2023-04-01T04:12:42;5.10;;;0.73;;
69185;SDS011;56298;49.246;9.410;2023-04-01T04:15:08;4.97;;;0.63;;
69185;SDS011;56298;49.246;9.410;2023-04-01T04:17:34;4.20;;;0.60;;
69185;SDS011;56298;49.246;9.410;2023-04-01T04:19:59;3.50;;;0.50;;
69185;SDS011;56298;49.246;9.410;2023-04-01T04:22:24;5.13;;;0.63;;
69185;SDS011;56298;49.246;9.410;2023-04-01T04:24:50;4.97;;;0.60;;
69185;SDS011;56298;49.246;9.410;2023-04-01T04:27:15;4.83;;;0.80;;
69185;SDS011;56298;49.246;9.410;2023-04-01T04:29:41;5.03;;;0.90;;
69185;SDS011;56298;49.246;9.410;2023-04-01T04:32:06;4.37;;;0.80;;
69185;SDS011;56298;49.246;9.410;2023-04-01T04:34:31;4.53;;;0.90;;
69185;SDS011;56298;49.246;9.410;2023-04-01T04:36:57;7.47;;;0.95;;
69185;SDS011;56298;49.246;9.410;2023-04-01T04:39:23;3.70;;;0.80;;
69185;SDS011;56298;49.246;9.410;2023-04-01T04:41:48;5.30;;;1.00;;
69185;SDS011;56298;49.246;9.410;2023-04-01T04:44:13;5.50;;;1.10;;
69185;SDS011;56298;49.246;9.410;2023-04-01T04:46:39;4.75;;;0.70;;
69185;SDS011;56298;49.246;9.410;2023-04-01T04:49:05;5.37;;;0.70;;
69185;SDS011;56298;49.246;9.410;2023-04-01T04:51:30;6.70;;;0.77;;
69185;SDS011;56298;49.246;9.410;2023-04-01T04:53:58;3.95;;;0.73;;
69185;SDS011;56298;49.246;9.410;2023-04-01T04:56:24;4.80;;;1.00;;
69185;SDS011;56298;49.246;9.410;2023-04-01T04:58:50;4.35;;;0.90;;
69185;SDS011;56298;49.246;9.410;2023-04-01T05:01:16;6.77;;;1.00;;
69185;SDS011;56298;49.246;9.410;2023-04-01T05:03:42;6.88;;;1.98;;
69185;SDS011;56298;49.246;9.410;2023-04-01T05:06:08;7.15;;;2.15;;
69185;SDS011;56298;49.246;9.410;2023-04-01T05:08:35;8.93;;;2.53;;
69185;SDS011;56298;49.246;9.410;2023-04-01T05:11:00;6.32;;;1.45;;
69185;SDS011;56298;49.246;9.410;2023-04-01T05:13:27;4.38;;;0.65;;
69185;SDS011;56298;49.246;9.410;2023-04-01T05:15:52;5.43;;;0.90;;
69185;SDS011;56298;49.246;9.410;2023-04-01T05:18:17;4.90;;;0.90;;
69185;SDS011;56298;49.246;9.410;2023-04-01T05:20:49;6.10;;;1.00;;
69185;SDS011;56298;49.246;9.410;2023-04-01T05:23:16;4.10;;;1.00;;
69185;SDS011;56298;49.246;9.410;2023-04-01T05:25:42;5.73;;;1.27;;
69185;SDS011;56298;49.246;9.410;2023-04-01T05:28:07;5.85;;;1.27;;
69185;SDS011;56298;49.246;9.410;2023-04-01T05:30:33;6.27;;;1.57;;
69185;SDS011;56298;49.246;9.410;2023-04-01T05:32:58;8.87;;;2.80;;
69185;SDS011;56298;49.246;9.410;2023-04-01T05:35:23;5.93;;;1.33;;
69185;SDS011;56298;49.246;9.410;2023-04-01T05:37:49;6.00;;;1.50;;
69185;SDS011;56298;49.246;9.410;2023-04-01T05:40:14;8.23;;;1.80;;
69185;SDS011;56298;49.246;9.410;2023-04-01T05:42:39;5.57;;;1.17;;
69185;SDS011;56298;49.246;9.410;2023-04-01T05:45:05;4.80;;;0.97;;
69185;SDS011;56298;49.246;9.410;2023-04-01T05:47:31;4.47;;;1.40;;
69185;SDS011;56298;49.246;9.410;2023-04-01T05:49:56;5.75;;;1.40;;
69185;SDS011;56298;49.246;9.410;2023-04-01T05:52:21;3.97;;;0.73;;
69185;SDS011;56298;49.246;9.410;2023-04-01T05:54:46;4.33;;;0.70;;
69185;SDS011;56298;49.246;9.410;2023-04-01T05:57:12;5.20;;;1.53;;
69185;SDS011;56298;49.246;9.410;2023-04-01T05:59:37;5.13;;;2.37;;
69185;SDS011;56298;49.246;9.410;2023-04-01T06:02:02;5.07;;;1.43;;
69185;SDS011;56298;49.246;9.410;2023-04-01T06:04:28;10.35;;;5.53;;
69185;SDS011;56298;49.246;9.410;2023-04-01T06:07:05;7.65;;;1.90;;
69185;SDS011;56298;49.246;9.410;2023-04-01T06:09:36;3.45;;;0.70;;
69185;SDS011;56298;49.246;9.410;2023-04-01T06:22:56;3.97;;;0.60;;
69185;SDS011;56298;49.246;9.410;2023-04-01T06:56:39;3.97;;;0.80;;
69185;SDS011;56298;49.246;9.410;2023-04-01T06:59:12;5.28;;;0.90;;
69185;SDS011;56298;49.246;9.410;2023-04-01T07:01:42;4.03;;;0.70;;
69185;SDS011;56298;49.246;9.410;2023-04-01T07:10:02;5.40;;;0.63;;
69185;SDS011;56298;49.246;9.410;2023-04-01T07:15:01;5.80;;;0.80;;
69185;SDS011;56298;49.246;9.410;2023-04-01T07:17:32;3.47;;;0.60;;
69185;SDS011;56298;49.246;9.410;2023-04-01T07:20:02;3.38;;;0.82;;
69185;SDS011;56298;49.246;9.410;2023-04-01T07:22:38;3.92;;;0.70;;
69185;SDS011;56298;49.246;9.410;2023-04-01T07:25:11;4.57;;;1.00;;
69185;SDS011;56298;49.246;9.410;2023-04-01T07:27:39;5.60;;;1.07;;
69185;SDS011;56298;49.246;9.410;2023-04-01T07:30:12;4.70;;;1.13;;
69185;SDS011;56298;49.246;9.410;2023-04-01T07:32:42;5.13;;;0.85;;
69185;SDS011;56298;49.246;9.410;2023-04-01T07:35:27;4.53;;;1.10;;
69185;SDS011;56298;49.246;9.410;2023-04-01T07:41:09;4.63;;;0.60;;
69185;SDS011;56298;49.246;9.410;2023-04-01T07:46:19;4.10;;;0.80;;
69185;SDS011;56298;49.246;9.410;2023-04-01T07:49:16;4.53;;;1.00;;
69185;SDS011;56298;49.246;9.410;2023-04-01T07:54:22;4.38;;;1.02;;
69185;SDS011;56298;49.246;9.410;2023-04-01T07:57:07;4.07;;;0.90;;
69185;SDS011;56298;49.246;9.410;2023-04-01T08:10:53;3.38;;;0.45;;
69185;SDS011;56298;49.246;9.410;2023-04-01T08:19:00;2.50;;;0.50;;
69185;SDS011;56298;49.246;9.410;2023-04-01T08:21:28;3.95;;;0.50;;
69185;SDS011;56298;49.246;9.410;2023-04-01T08:24:25;5.15;;;1.23;;
69185;SDS011;56298;49.246;9.410;2023-04-01T08:26:57;3.03;;;0.70;;
69185;SDS011;56298;49.246;9.410;2023-04-01T08:29:40;3.50;;;0.60;;
69185;SDS011;56298;49.246;9.410;2023-04-01T08:32:12;3.35;;;0.60;;
69185;SDS011;56298;49.246;9.410;2023-04-01T08:34:44;3.00;;;0.50;;
69185;SDS011;56298;49.246;9.410;2023-04-01T08:37:17;2.80;;;0.50;;
69185;SDS011;56298;49.246;9.410;2023-04-01T08:39:48;5.35;;;1.10;;
69185;SDS011;56298;49.246;9.410;2023-04-01T08:45:23;3.88;;;1.10;;
69185;SDS011;56298;49.246;9.410;2023-04-01T08:50:44;6.45;;;1.70;;
69185;SDS011;56298;49.246;9.410;2023-04-01T09:15:19;2.90;;;0.63;;
69185;SDS011;56298;49.246;9.410;2023-04-01T09:23:46;3.22;;;0.60;;
69185;SDS011;56298;49.246;9.410;2023-04-01T09:29:00;3.55;;;0.70;;
69185;SDS011;56298;49.246;9.410;2023-04-01T09:34:51;3.08;;;0.70;;
69185;SDS011;56298;49.246;9.410;2023-04-01T09:37:18;3.70;;;0.77;;
69185;SDS011;56298;49.246;9.410;2023-04-01T09:48:49;3.70;;;0.80;;
69185;SDS011;56298;49.246;9.410;2023-04-01T09:54:59;3.17;;;0.70;;
69185;SDS011;56298;49.246;9.410;2023-04-01T09:57:39;2.90;;;0.60;;
69185;SDS011;56298;49.246;9.410;2023-04-01T10:06:10;3.50;;;1.20;;
69185;SDS011;56298;49.246;9.410;2023-04-01T10:09:14;9.15;;;4.75;;
69185;SDS011;56298;49.246;9.410;2023-04-01T10:18:07;3.00;;;0.70;;
69185;SDS011;56298;49.246;9.410;2023-04-01T10:29:02;5.15;;;0.90;;
69185;SDS011;56298;49.246;9.410;2023-04-01T10:37:44;2.60;;;0.50;;
69185;SDS011;56298;49.246;9.410;2023-04-01T10:41:16;4.07;;;0.93;;
69185;SDS011;56298;49.246;9.410;2023-04-01T11:07:45;6.00;;;1.83;;
69185;SDS011;56298;49.246;9.410;2023-04-01T11:30:12;4.00;;;1.00;;
69185;SDS011;56298;49.246;9.410;2023-04-01T11:33:07;4.32;;;1.10;;
69185;SDS011;56298;49.246;9.410;2023-04-01T11:38:24;3.47;;;0.97;;
69185;SDS011;56298;49.246;9.410;2023-04-01T11:41:19;3.65;;;1.00;;
69185;SDS011;56298;49.246;9.410;2023-04-01T11:44:04;3.47;;;0.90;;
69185;SDS011;56298;49.246;9.410;2023-04-01T11:52:46;2.95;;;0.70;;
69185;SDS011;56298;49.246;9.410;2023-04-01T11:55:32;3.30;;;0.68;;
69185;SDS011;56298;49.246;9.410;2023-04-01T12:01:08;3.47;;;0.80;;
69185;SDS011;56298;49.246;9.410;2023-04-01T12:06:40;3.50;;;1.00;;
69185;SDS011;56298;49.246;9.410;2023-04-01T12:14:11;4.47;;;1.10;;
69185;SDS011;56298;49.246;9.410;2023-04-01T12:16:55;3.75;;;1.02;;
69185;SDS011;56298;49.246;9.410;2023-04-01T12:19:28;3.65;;;0.90;;
69185;SDS011;56298;49.246;9.410;2023-04-01T12:33:12;3.10;;;0.75;;
69185;SDS011;56298;49.246;9.410;2023-04-01T12:55:45;4.70;;;1.30;;
69185;SDS011;56298;49.246;9.410;2023-04-01T13:20:43;5.67;;;2.23;;
69185;SDS011;56298;49.246;9.410;2023-04-01T13:23:27;4.53;;;1.55;;
69185;SDS011;56298;49.246;9.410;2023-04-01T13:26:21;3.75;;;1.52;;
69185;SDS011;56298;49.246;9.410;2023-04-01T13:28:54;4.40;;;1.57;;
69185;SDS011;56298;49.246;9.410;2023-04-01T13:31:29;4.87;;;2.00;;
69185;SDS011;56298;49.246;9.410;2023-04-01T13:45:34;3.50;;;1.27;;
69185;SDS011;56298;49.246;9.410;2023-04-01T14:13:46;3.00;;;1.00;;
69185;SDS011;56298;49.246;9.410;2023-04-01T14:16:32;3.08;;;1.00;;
69185;SDS011;56298;49.246;9.410;2023-04-01T14:33:42;5.18;;;3.13;;
69185;SDS011;56298;49.246;9.410;2023-04-01T14:42:03;3.40;;;0.82;;
69185;SDS011;56298;49.246;9.410;2023-04-01T14:47:25;3.83;;;0.80;;
69185;SDS011;56298;49.246;9.410;2023-04-01T14:52:36;3.28;;;0.98;;
69185;SDS011;56298;49.246;9.410;2023-04-01T14:55:43;4.93;;;1.85;;
69185;SDS011;56298;49.246;9.410;2023-04-01T14:58:09;5.20;;;2.22;;
69185;SDS011;56298;49.246;9.410;2023-04-01T15:01:24;3.75;;;1.33;;
69185;SDS011;56298;49.246;9.410;2023-04-01T15:23:34;3.85;;;1.00;;
69185;SDS011;56298;49.246;9.410;2023-04-01T15:26:26;3.45;;;1.05;;
69185;SDS011;56298;49.246;9.410;2023-04-01T15:34:38;3.03;;;0.73;;
69185;SDS011;56298;49.246;9.410;2023-04-01T15:43:40;3.58;;;1.10;;
69185;SDS011;56298;49.246;9.410;2023-04-01T15:51:39;3.80;;;1.27;;
69185;SDS011;56298;49.246;9.410;2023-04-01T16:03:30;4.30;;;1.00;;
69185;SDS011;56298;49.246;9.410;2023-04-01T16:06:18;2.60;;;0.80;;
69185;SDS011;56298;49.246;9.410;2023-04-01T16:09:02;3.80;;;1.10;;
69185;SDS011;56298;49.246;9.410;2023-04-01T16:14:18;3.60;;;1.02;;
69185;SDS011;56298;49.246;9.410;2023-04-01T16:20:54;3.20;;;0.65;;
69185;SDS011;56298;49.246;9.410;2023-04-01T16:23:29;3.40;;;0.93;;
69185;SDS011;56298;49.246;9.410;2023-04-01T16:26:26;3.40;;;1.10;;
69185;SDS011;56298;49.246;9.410;2023-04-01T16:29:04;4.10;;;1.58;;
69185;SDS011;56298;49.246;9.410;2023-04-01T16:34:43;3.67;;;1.20;;
69185;SDS011;56298;49.246;9.410;2023-04-01T16:43:44;4.17;;;1.07;;
69185;SDS011;56298;49.246;9.410;2023-04-01T16:49:03;3.08;;;0.93;;
69185;SDS011;56298;49.246;9.410;2023-04-01T16:54:18;3.63;;;0.90;;
69185;SDS011;56298;49.246;9.410;2023-04-01T16:57:02;5.00;;;1.40;;
69185;SDS011;56298;49.246;9.410;2023-04-01T16:59:37;12.87;;;3.90;;
69185;SDS011;56298;49.246;9.410;2023-04-01T17:15:35;57.53;;;18.35;;
69185;SDS011;56298;49.246;9.410;2023-04-01T17:21:18;19.75;;;7.22;;
69185;SDS011;56298;49.246;9.410;2023-04-01T17:24:29;24.48;;;6.88;;
69185;SDS011;56298;49.246;9.410;2023-04-01T17:35:22;23.75;;;9.73;;
69185;SDS011;56298;49.246;9.410;2023-04-01T17:40:30;9.60;;;4.40;;
69185;SDS011;56298;49.246;9.410;2023-04-01T17:48:36;11.73;;;5.53;;
69185;SDS011;56298;49.246;9.410;2023-04-01T17:51:14;9.67;;;4.00;;
69185;SDS011;56298;49.246;9.410;2023-04-01T17:54:14;6.27;;;2.07;;
69185;SDS011;56298;49.246;9.410;2023-04-01T17:56:56;10.52;;;4.50;;
69185;SDS011;56298;49.246;9.410;2023-04-01T17:59:36;11.25;;;3.85;;
69185;SDS011;56298;49.246;9.410;2023-04-01T18:02:15;10.80;;;4.82;;
69185;SDS011;56298;49.246;9.410;2023-04-01T18:04:56;10.35;;;5.22;;
69185;SDS011;56298;49.246;9.410;2023-04-01T18:18:53;9.30;;;5.23;;
69185;SDS011;56298;49.246;9.410;2023-04-01T18:24:13;5.32;;;1.80;;
69185;SDS011;56298;49.246;9.410;2023-04-01T18:26:45;5.55;;;1.42;;
69185;SDS011;56298;49.246;9.410;2023-04-01T18:31:44;7.25;;;2.53;;
69185;SDS011;56298;49.246;9.410;2023-04-01T18:34:15;6.50;;;3.28;;
69185;SDS011;56298;49.246;9.410;2023-04-01T18:36:53;5.03;;;2.22;;
69185;SDS011;56298;49.246;9.410;2023-04-01T18:39:30;6.30;;;1.90;;
69185;SDS011;56298;49.246;9.410;2023-04-01T18:42:03;12.77;;;5.10;;
69185;SDS011;56298;49.246;9.410;2023-04-01T18:44:48;7.28;;;2.58;;
69185;SDS011;56298;49.246;9.410;2023-04-01T18:53:38;8.03;;;3.00;;
69185;SDS011;56298;49.246;9.410;2023-04-01T18:56:01;11.43;;;4.50;;
69185;SDS011;56298;49.246;9.410;2023-04-01T18:58:34;11.70;;;5.63;;
69185;SDS011;56298;49.246;9.410;2023-04-01T19:01:08;12.95;;;6.20;;
69185;SDS011;56298;49.246;9.410;2023-04-01T19:03:41;14.27;;;8.32;;
69185;SDS011;56298;49.246;9.410;2023-04-01T19:06:15;14.97;;;7.43;;
69185;SDS011;56298;49.246;9.410;2023-04-01T19:08:45;12.63;;;6.70;;
69185;SDS011;56298;49.246;9.410;2023-04-01T19:36:56;7.67;;;3.17;;
69185;SDS011;56298;49.246;9.410;2023-04-01T19:39:30;7.07;;;2.55;;
69185;SDS011;56298;49.246;9.410;2023-04-01T19:42:26;14.38;;;7.93;;
69185;SDS011;56298;49.246;9.410;2023-04-01T19:47:45;7.38;;;3.05;;
69185;SDS011;56298;49.246;9.410;2023-04-01T19:58:33;7.28;;;2.10;;
69185;SDS011;56298;49.246;9.410;2023-04-01T20:01:05;6.30;;;2.17;;
69185;SDS011;56298;49.246;9.410;2023-04-01T20:03:45;7.93;;;3.10;;
69185;SDS011;56298;49.246;9.410;2023-04-01T20:06:20;7.63;;;3.30;;
69185;SDS011;56298;49.246;9.410;2023-04-01T20:09:05;7.75;;;2.70;;
69185;SDS011;56298;49.246;9.410;2023-04-01T20:19:42;7.80;;;3.30;;
69185;SDS011;56298;49.246;9.410;2023-04-01T20:24:58;5.40;;;1.95;;
69185;SDS011;56298;49.246;9.410;2023-04-01T20:27:35;4.13;;;1.60;;
69185;SDS011;56298;49.246;9.410;2023-04-01T20:30:26;4.10;;;1.30;;
69185;SDS011;56298;49.246;9.410;2023-04-01T20:38:56;4.13;;;1.60;;
69185;SDS011;56298;49.246;9.410;2023-04-01T20:44:26;4.88;;;1.45;;
69185;SDS011;56298;49.246;9.410;2023-04-01T20:49:40;3.97;;;1.10;;
69185;SDS011;56298;49.246;9.410;2023-04-01T20:52:37;3.97;;;1.23;;
69185;SDS011;56298;49.246;9.410;2023-04-01T21:09:11;9.60;;;4.80;;
69185;SDS011;56298;49.246;9.410;2023-04-01T21:14:31;5.07;;;1.40;;
69185;SDS011;56298;49.246;9.410;2023-04-01T21:17:08;4.40;;;1.42;;
69185;SDS011;56298;49.246;9.410;2023-04-01T21:19:48;7.32;;;1.67;;
69185;SDS011;56298;49.246;9.410;2023-04-01T21:22:29;5.70;;;1.53;;
69185;SDS011;56298;49.246;9.410;2023-04-01T21:25:21;5.65;;;1.70;;
69185;SDS011;56298;49.246;9.410;2023-04-01T21:34:55;4.85;;;1.10;;
69185;SDS011;56298;49.246;9.410;2023-04-01T21:45:31;4.00;;;1.20;;
69185;SDS011;56298;49.246;9.410;2023-04-01T21:50:55;5.57;;;1.65;;
69185;SDS011;56298;49.246;9.410;2023-04-01T22:09:45;4.30;;;1.20;;
69185;SDS011;56298;49.246;9.410;2023-04-01T22:12:15;3.53;;;0.90;;
69185;SDS011;56298;49.246;9.410;2023-04-01T22:14:49;4.40;;;1.37;;
69185;SDS011;56298;49.246;9.410;2023-04-01T22:17:38;4.23;;;1.30;;
69185;SDS011;56298;49.246;9.410;2023-04-01T22:25:46;5.22;;;1.20;;
69185;SDS011;56298;49.246;9.410;2023-04-01T22:31:02;3.75;;;1.13;;
69185;SDS011;56298;49.246;9.410;2023-04-01T22:33:35;3.85;;;0.95;;
69185;SDS011;56298;49.246;9.410;2023-04-01T22:44:46;5.30;;;1.00;;
69185;SDS011;56298;49.246;9.410;2023-04-01T22:47:27;4.63;;;1.20;;
69185;SDS011;56298;49.246;9.410;2023-04-01T22:50:13;4.18;;;1.13;;
69185;SDS011;56298;49.246;9.410;2023-04-01T22:53:03;4.00;;;1.10;;
69185;SDS011;56298;49.246;9.410;2023-04-01T22:55:40;4.47;;;1.13;;
69185;SDS011;56298;49.246;9.410;2023-04-01T22:58:08;3.63;;;0.90;;
69185;SDS011;56298;49.246;9.410;2023-04-01T23:00:58;4.50;;;1.30;;
69185;SDS011;56298;49.246;9.410;2023-04-01T23:06:05;4.03;;;1.00;;
69185;SDS011;56298;49.246;9.410;2023-04-01T23:14:49;3.67;;;1.15;;
69185;SDS011;56298;49.246;9.410;2023-04-01T23:20:20;3.58;;;0.90;;
69185;SDS011;56298;49.246;9.410;2023-04-01T23:22:57;4.30;;;1.23;;
69185;SDS011;56298;49.246;9.410;2023-04-01T23:25:56;3.92;;;1.00;;
69185;SDS011;56298;49.246;9.410;2023-04-01T23:31:26;3.60;;;0.95;;
69185;SDS011;56298;49.246;9.410;2023-04-01T23:33:55;3.60;;;1.10;;
69185;SDS011;56298;49.246;9.410;2023-04-01T23:36:22;5.18;;;1.00;;
69185;SDS011;56298;49.246;9.410;2023-04-01T23:38:48;3.75;;;1.02;;
69185;SDS011;56298;49.246;9.410;2023-04-01T23:41:18;4.03;;;1.10;;
69185;SDS011;56298;49.246;9.410;2023-04-01T23:44:00;5.18;;;1.05;;
69185;SDS011;56298;49.246;9.410;2023-04-01T23:46:29;5.73;;;1.20;;
69185;SDS011;56298;49.246;9.410;2023-04-01T23:48:55;4.50;;;1.10;;
69185;SDS011;56298;49.246;9.410;2023-04-01T23:51:22;3.63;;;0.97;;
69185;SDS011;56298;49.246;9.410;2023-04-01T23:54:00;4.13;;;0.90;;
69185;SDS011;56298;49.246;9.410;2023-04-01T23:56:33;4.38;;;1.20;;
69185;SDS011;56298;49.246;9.410;2023-04-01T23:59:24;4.50;;;1.00;;
